createdAt,value
2022-12-29T00:01:07.785Z,0.65
2022-12-29T00:03:35.493Z,3.60
2022-12-29T00:06:03.858Z,3.38
2022-12-29T00:08:41.049Z,1.08
2022-12-29T00:11:20.101Z,5.47
2022-12-29T00:14:06.630Z,4.32
2022-12-29T00:16:36.063Z,3.17
2022-12-29T00:19:05.993Z,2.90
2022-12-29T00:21:53.365Z,2.13
2022-12-29T00:24:22.995Z,1.25
2022-12-29T00:27:33.363Z,2.90
2022-12-29T00:30:19.794Z,1.13
2022-12-29T00:33:06.079Z,1.13
2022-12-29T00:35:40.785Z,1.23
2022-12-29T00:38:28.405Z,1.55
2022-12-29T00:41:14.429Z,2.90
2022-12-29T00:44:00.527Z,2.87
2022-12-29T00:46:28.712Z,3.35
2022-12-29T00:49:15.155Z,3.10
2022-12-29T00:51:43.133Z,3.13
2022-12-29T00:54:10.699Z,2.25
2022-12-29T00:56:38.298Z,2.77
2022-12-29T00:59:08.029Z,1.85
2022-12-29T01:01:36.551Z,2.08
2022-12-29T01:04:05.503Z,3.63
2022-12-29T01:06:34.465Z,2.83
2022-12-29T01:09:20.456Z,1.43
2022-12-29T01:11:49.303Z,2.90
2022-12-29T01:14:18.034Z,3.58
2022-12-29T01:16:46.349Z,4.40
2022-12-29T01:19:15.266Z,0.38
2022-12-29T01:21:43.277Z,0.57
2022-12-29T01:24:10.887Z,2.40
2022-12-29T01:26:38.508Z,1.00
2022-12-29T01:29:06.045Z,1.30
2022-12-29T01:31:33.746Z,2.28
2022-12-29T01:34:01.783Z,1.93
2022-12-29T01:36:29.397Z,1.65
2022-12-29T01:38:57.265Z,2.85
2022-12-29T01:41:24.965Z,2.05
2022-12-29T01:43:58.763Z,2.33
2022-12-29T01:46:41.093Z,1.57
2022-12-29T01:49:09.055Z,3.90
2022-12-29T01:52:08.452Z,4.32
2022-12-29T01:54:44.910Z,0.70
2022-12-29T01:57:17.932Z,3.10
2022-12-29T01:59:57.655Z,2.90
2022-12-29T02:02:25.884Z,1.08
2022-12-29T02:05:00.124Z,2.20
2022-12-29T02:07:32.627Z,2.15
2022-12-29T02:10:02.519Z,2.20
2022-12-29T02:12:30.939Z,4.73
2022-12-29T02:15:03.128Z,4.18
2022-12-29T02:17:36.713Z,1.73
2022-12-29T02:20:16.386Z,2.63
2022-12-29T02:22:56.184Z,3.10
2022-12-29T02:25:42.027Z,2.70
2022-12-29T02:28:33.903Z,4.88
2022-12-29T02:31:18.270Z,2.72
2022-12-29T02:34:16.118Z,1.52
2022-12-29T02:36:54.807Z,4.57
2022-12-29T02:39:51.374Z,1.77
2022-12-29T02:42:42.666Z,3.55
2022-12-29T02:45:37.830Z,3.00
2022-12-29T02:48:10.505Z,2.45
2022-12-29T02:50:40.850Z,1.30
2022-12-29T02:53:14.366Z,4.10
2022-12-29T02:55:52.582Z,3.90
2022-12-29T02:58:23.072Z,4.35
2022-12-29T03:01:30.503Z,1.83
2022-12-29T03:04:12.045Z,3.85
2022-12-29T03:07:03.818Z,2.37
2022-12-29T03:09:55.532Z,1.90
2022-12-29T03:12:56.951Z,2.67
2022-12-29T03:15:53.698Z,1.95
2022-12-29T03:18:27.532Z,2.03
2022-12-29T03:21:03.746Z,2.23
2022-12-29T03:23:33.468Z,5.32
2022-12-29T03:26:06.677Z,3.15
2022-12-29T03:28:39.729Z,4.05
2022-12-29T03:31:10.722Z,3.55
2022-12-29T03:33:43.004Z,2.83
2022-12-29T03:36:17.061Z,1.95
2022-12-29T03:38:50.747Z,3.33
2022-12-29T03:41:25.007Z,1.25
2022-12-29T03:43:52.863Z,1.08
2022-12-29T03:46:20.443Z,2.33
2022-12-29T03:48:48.157Z,2.88
2022-12-29T03:51:15.747Z,5.50
2022-12-29T03:53:43.707Z,2.42
2022-12-29T03:56:11.447Z,4.43
2022-12-29T03:58:39.039Z,1.40
2022-12-29T04:01:17.411Z,2.10
2022-12-29T04:03:46.171Z,2.10
2022-12-29T04:06:13.798Z,2.90
2022-12-29T04:08:50.129Z,4.10
2022-12-29T04:11:17.752Z,3.30
2022-12-29T04:13:46.557Z,4.00
2022-12-29T04:16:18.085Z,6.03
2022-12-29T04:18:46.300Z,3.45
2022-12-29T04:21:13.913Z,4.90
2022-12-29T04:23:43.772Z,1.37
2022-12-29T04:26:11.911Z,4.15
2022-12-29T04:28:50.313Z,1.08
2022-12-29T04:31:44.524Z,2.60
2022-12-29T04:34:12.462Z,0.85
2022-12-29T04:36:40.784Z,1.47
2022-12-29T04:39:08.905Z,1.85
2022-12-29T04:41:38.074Z,1.30
2022-12-29T04:44:07.922Z,2.53
2022-12-29T04:47:10.779Z,4.65
2022-12-29T04:49:50.666Z,3.03
2022-12-29T04:52:38.470Z,3.88
2022-12-29T04:55:07.612Z,3.20
2022-12-29T04:57:35.761Z,2.78
2022-12-29T05:00:05.023Z,4.38
2022-12-29T05:02:32.933Z,2.40
2022-12-29T05:05:01.703Z,4.57
2022-12-29T05:07:29.994Z,2.72
2022-12-29T05:09:57.661Z,1.63
2022-12-29T05:12:25.668Z,3.78
2022-12-29T05:14:58.860Z,0.73
2022-12-29T05:17:27.355Z,4.03
2022-12-29T05:19:55.199Z,4.55
2022-12-29T05:22:24.383Z,3.40
2022-12-29T05:24:52.148Z,5.70
2022-12-29T05:27:19.816Z,1.90
2022-12-29T05:30:01.703Z,4.47
2022-12-29T05:32:29.593Z,2.35
2022-12-29T05:34:59.508Z,4.43
2022-12-29T05:37:27.162Z,3.17
2022-12-29T05:39:54.747Z,5.47
2022-12-29T05:42:22.359Z,6.47
2022-12-29T05:44:59.409Z,6.32
2022-12-29T05:47:53.415Z,1.35
2022-12-29T05:50:56.167Z,3.17
2022-12-29T05:53:33.230Z,2.70
2022-12-29T05:56:01.645Z,4.15
2022-12-29T05:58:29.493Z,1.50
2022-12-29T06:00:57.165Z,3.78
2022-12-29T06:03:25.689Z,1.63
2022-12-29T06:05:53.568Z,3.37
2022-12-29T06:08:21.229Z,3.92
2022-12-29T06:10:50.542Z,4.03
2022-12-29T06:13:18.275Z,1.92
2022-12-29T06:15:52.761Z,2.88
2022-12-29T06:18:21.231Z,4.13
2022-12-29T06:20:49.250Z,3.85
2022-12-29T06:23:19.721Z,1.17
2022-12-29T06:25:50.802Z,1.00
2022-12-29T06:28:18.420Z,0.75
2022-12-29T06:30:47.214Z,0.30
2022-12-29T06:33:14.821Z,0.93
2022-12-29T06:35:46.996Z,0.32
2022-12-29T06:38:16.240Z,1.02
2022-12-29T06:40:46.120Z,1.95
2022-12-29T06:43:22.917Z,2.57
2022-12-29T06:46:09.908Z,1.95
2022-12-29T06:48:37.574Z,3.45
2022-12-29T06:51:05.306Z,2.80
2022-12-29T06:53:32.984Z,3.45
2022-12-29T06:56:01.102Z,3.70
2022-12-29T06:58:28.704Z,5.57
2022-12-29T07:00:56.337Z,1.95
2022-12-29T07:03:24.023Z,0.95
2022-12-29T07:05:51.587Z,3.22
2022-12-29T07:08:19.517Z,2.33
2022-12-29T07:10:47.705Z,2.63
2022-12-29T07:13:15.289Z,7.05
2022-12-29T07:15:43.182Z,1.73
2022-12-29T07:18:10.955Z,0.65
2022-12-29T07:20:38.480Z,1.50
2022-12-29T07:23:06.075Z,1.98
2022-12-29T07:25:33.710Z,1.40
2022-12-29T07:28:01.306Z,1.20
2022-12-29T07:30:28.918Z,1.88
2022-12-29T07:32:56.578Z,2.23
2022-12-29T07:35:24.225Z,2.55
2022-12-29T07:37:51.830Z,3.97
2022-12-29T07:40:19.385Z,0.17
2022-12-29T07:42:46.955Z,1.88
2022-12-29T07:45:16.913Z,0.90
2022-12-29T07:48:06.944Z,0.00
2022-12-29T07:50:35.599Z,2.70
2022-12-29T07:53:03.902Z,0.93
2022-12-29T07:55:31.531Z,0.50
2022-12-29T07:57:59.121Z,1.13
2022-12-29T08:00:27.081Z,0.65
2022-12-29T08:02:54.843Z,1.48
2022-12-29T08:05:23.480Z,1.00
2022-12-29T08:07:51.661Z,0.22
2022-12-29T08:10:20.111Z,1.87
2022-12-29T08:12:48.090Z,0.25
2022-12-29T08:15:15.789Z,1.13
2022-12-29T08:17:43.452Z,0.60
2022-12-29T08:20:11.339Z,0.95
2022-12-29T08:22:38.963Z,1.13
2022-12-29T08:25:06.780Z,0.60
2022-12-29T08:27:34.371Z,0.40
2022-12-29T08:30:02.005Z,2.95
2022-12-29T08:32:29.695Z,1.40
2022-12-29T08:34:57.383Z,3.97
2022-12-29T08:37:30.716Z,7.43
2022-12-29T08:39:59.812Z,2.35
2022-12-29T08:42:32.100Z,8.35
2022-12-29T08:45:00.379Z,3.05
2022-12-29T08:47:28.572Z,1.60
2022-12-29T08:49:56.180Z,3.65
2022-12-29T08:52:24.171Z,2.85
2022-12-29T08:54:51.842Z,6.55
2022-12-29T08:57:19.497Z,4.00
2022-12-29T09:00:05.596Z,6.40
2022-12-29T09:02:33.480Z,5.82
2022-12-29T09:05:02.114Z,2.05
2022-12-29T09:07:30.800Z,6.95
2022-12-29T09:09:58.351Z,6.45
2022-12-29T09:12:26.123Z,7.27
2022-12-29T09:14:55.255Z,6.95
2022-12-29T09:17:41.508Z,4.70
2022-12-29T09:20:10.086Z,2.17
2022-12-29T09:22:38.090Z,3.88
2022-12-29T09:25:05.996Z,4.53
2022-12-29T09:27:33.668Z,4.10
2022-12-29T09:30:01.274Z,6.68
2022-12-29T09:32:33.611Z,2.85
2022-12-29T09:35:02.448Z,2.90
2022-12-29T09:37:30.026Z,5.63
2022-12-29T09:39:57.617Z,4.20
2022-12-29T09:42:45.347Z,2.55
2022-12-29T09:45:15.979Z,2.83
2022-12-29T09:47:46.199Z,3.38
2022-12-29T09:50:16.832Z,2.30
2022-12-29T09:53:00.404Z,4.00
2022-12-29T09:55:38.135Z,3.97
2022-12-29T09:58:21.977Z,6.95
2022-12-29T10:00:55.841Z,6.63
2022-12-29T10:03:27.888Z,6.57
2022-12-29T10:06:22.954Z,7.22
2022-12-29T10:09:18.335Z,5.38
2022-12-29T10:12:24.133Z,8.38
2022-12-29T10:15:29.469Z,7.68
2022-12-29T10:18:11.976Z,8.27
2022-12-29T10:20:53.792Z,6.75
2022-12-29T10:23:33.381Z,6.43
2022-12-29T10:26:04.009Z,9.15
2022-12-29T10:28:50.500Z,9.48
2022-12-29T10:31:22.858Z,12.40
2022-12-29T10:33:57.446Z,6.82
2022-12-29T10:36:27.996Z,7.45
2022-12-29T10:39:01.665Z,10.30
2022-12-29T10:41:37.757Z,10.80
2022-12-29T10:44:05.478Z,12.47
2022-12-29T10:46:37.753Z,6.78
2022-12-29T10:49:12.939Z,9.63
2022-12-29T10:51:45.658Z,6.22
2022-12-29T10:54:34.681Z,13.55
2022-12-29T10:57:12.590Z,14.20
2022-12-29T10:59:40.337Z,9.07
2022-12-29T11:02:07.983Z,13.02
2022-12-29T11:04:53.957Z,8.15
2022-12-29T11:07:27.155Z,16.38
2022-12-29T11:09:55.520Z,10.67
2022-12-29T11:12:27.797Z,9.57
2022-12-29T11:15:08.634Z,4.90
2022-12-29T11:17:48.481Z,8.88
2022-12-29T11:20:36.471Z,5.53
2022-12-29T11:23:07.271Z,7.63
2022-12-29T11:25:34.836Z,4.35
2022-12-29T11:28:15.510Z,6.47
2022-12-29T11:30:44.130Z,10.02
2022-12-29T11:33:11.743Z,4.50
2022-12-29T11:35:44.253Z,4.97
2022-12-29T11:38:21.911Z,8.38
2022-12-29T11:40:49.932Z,6.28
2022-12-29T11:43:23.711Z,5.80
2022-12-29T11:45:53.997Z,3.90
2022-12-29T11:48:22.417Z,9.17
2022-12-29T11:50:56.782Z,6.05
2022-12-29T11:53:27.921Z,7.85
2022-12-29T11:56:13.499Z,5.80
2022-12-29T11:58:41.248Z,5.07
2022-12-29T12:01:25.278Z,7.13
2022-12-29T12:04:06.557Z,7.07
2022-12-29T12:06:38.117Z,5.28
2022-12-29T12:09:15.660Z,8.63
2022-12-29T12:11:46.568Z,6.20
2022-12-29T12:14:22.788Z,7.17
2022-12-29T12:17:11.641Z,8.75
2022-12-29T12:19:52.765Z,6.28
2022-12-29T12:22:24.160Z,8.23
2022-12-29T12:24:57.395Z,12.73
2022-12-29T12:27:30.361Z,12.97
2022-12-29T12:30:03.994Z,5.57
2022-12-29T12:32:53.668Z,8.40
2022-12-29T12:35:44.966Z,11.05
2022-12-29T12:38:20.844Z,9.93
2022-12-29T12:41:18.114Z,7.03
2022-12-29T12:43:56.745Z,6.93
2022-12-29T12:46:51.647Z,10.45
2022-12-29T12:49:58.425Z,4.53
2022-12-29T12:53:03.600Z,5.53
2022-12-29T12:55:54.911Z,4.77
2022-12-29T12:58:48.653Z,4.15
2022-12-29T13:01:31.721Z,2.97
2022-12-29T13:04:28.482Z,3.17
2022-12-29T13:07:23.271Z,3.58
2022-12-29T13:10:28.249Z,3.47
2022-12-29T13:13:13.919Z,3.40
2022-12-29T13:16:14.852Z,6.47
2022-12-29T13:19:32.500Z,3.33
2022-12-29T13:22:07.338Z,4.90
2022-12-29T13:24:47.009Z,5.23
2022-12-29T13:27:21.926Z,4.80
2022-12-29T13:30:20.474Z,11.50
2022-12-29T13:33:03.131Z,6.95
2022-12-29T13:35:42.896Z,6.38
2022-12-29T13:38:25.301Z,6.70
2022-12-29T13:41:04.698Z,6.82
2022-12-29T13:43:35.616Z,6.75
2022-12-29T13:46:10.941Z,7.30
2022-12-29T13:48:47.509Z,4.82
2022-12-29T13:51:19.212Z,3.63
2022-12-29T13:54:21.368Z,2.70
2022-12-29T13:57:27.897Z,3.90
2022-12-29T13:59:55.555Z,0.93
2022-12-29T14:02:29.499Z,0.52
2022-12-29T14:05:03.111Z,1.70
2022-12-29T14:07:37.972Z,0.63
2022-12-29T14:10:06.679Z,2.08
2022-12-29T14:12:41.837Z,2.55
2022-12-29T14:15:12.213Z,1.42
2022-12-29T14:18:00.871Z,2.63
2022-12-29T14:20:28.667Z,1.92
2022-12-29T14:23:20.663Z,1.80
2022-12-29T14:26:01.190Z,1.63
2022-12-29T14:28:31.163Z,2.08
2022-12-29T14:31:01.222Z,1.50
2022-12-29T14:33:32.007Z,3.40
2022-12-29T14:36:26.429Z,2.47
2022-12-29T14:38:54.074Z,1.27
2022-12-29T14:41:30.165Z,2.90
2022-12-29T14:44:02.669Z,4.13
2022-12-29T14:46:45.619Z,3.13
2022-12-29T14:49:25.969Z,7.60
2022-12-29T14:52:05.287Z,3.08
2022-12-29T14:54:32.843Z,2.78
2022-12-29T14:57:03.433Z,2.77
2022-12-29T14:59:35.923Z,3.58
2022-12-29T15:02:13.532Z,2.90
2022-12-29T15:04:41.535Z,1.70
2022-12-29T15:07:11.064Z,0.47
2022-12-29T15:09:52.440Z,1.97
2022-12-29T15:12:44.636Z,0.20
2022-12-29T15:15:25.014Z,2.38
2022-12-29T15:17:53.403Z,0.40
2022-12-29T15:20:20.842Z,0.17
2022-12-29T15:23:01.883Z,1.27
2022-12-29T15:25:29.732Z,1.08
2022-12-29T15:28:07.742Z,0.25
2022-12-29T15:30:36.584Z,1.63
2022-12-29T15:33:18.646Z,1.48
2022-12-29T15:35:52.543Z,1.23
2022-12-29T15:38:32.223Z,1.65
2022-12-29T15:41:09.676Z,6.18
2022-12-29T15:43:47.012Z,3.50
2022-12-29T15:46:15.346Z,2.15
2022-12-29T15:48:43.375Z,4.63
2022-12-29T15:51:24.840Z,3.53
2022-12-29T15:53:53.185Z,4.65
2022-12-29T15:56:21.135Z,3.63
2022-12-29T15:58:52.049Z,3.00
2022-12-29T16:01:22.092Z,3.40
2022-12-29T16:03:51.548Z,4.75
2022-12-29T16:06:39.452Z,6.47
2022-12-29T16:09:16.472Z,4.18
2022-12-29T16:12:09.206Z,4.95
2022-12-29T16:14:43.052Z,5.23
2022-12-29T16:17:13.931Z,4.32
2022-12-29T16:19:43.309Z,3.50
2022-12-29T16:22:27.033Z,7.13
2022-12-29T16:25:04.210Z,9.10
2022-12-29T16:27:43.431Z,6.83
2022-12-29T16:30:34.252Z,5.97
2022-12-29T16:33:04.979Z,6.93
2022-12-29T16:35:44.388Z,6.35
2022-12-29T16:38:24.000Z,3.72
2022-12-29T16:41:05.623Z,11.00
2022-12-29T16:43:42.997Z,9.85
2022-12-29T16:46:28.636Z,8.75
2022-12-29T16:48:58.067Z,17.80
2022-12-29T16:51:34.157Z,7.05
2022-12-29T16:54:02.894Z,7.33
2022-12-29T16:56:34.671Z,6.53
2022-12-29T16:59:07.518Z,11.73
2022-12-29T17:01:39.634Z,12.82
2022-12-29T17:04:11.297Z,10.13
2022-12-29T17:06:39.731Z,10.90
2022-12-29T17:09:25.420Z,13.63
2022-12-29T17:12:02.561Z,5.75
2022-12-29T17:15:13.599Z,9.32
2022-12-29T17:17:45.238Z,8.57
2022-12-29T17:20:18.936Z,6.27
2022-12-29T17:22:47.707Z,9.20
2022-12-29T17:25:20.020Z,12.15
2022-12-29T17:27:49.831Z,7.65
2022-12-29T17:30:21.016Z,7.65
2022-12-29T17:33:03.752Z,10.10
2022-12-29T17:35:31.549Z,11.02
2022-12-29T17:37:59.076Z,12.98
2022-12-29T17:40:33.097Z,9.77
2022-12-29T17:43:00.735Z,13.13
2022-12-29T17:45:31.059Z,12.77
2022-12-29T17:48:01.848Z,9.25
2022-12-29T17:50:31.514Z,9.90
2022-12-29T17:53:03.101Z,10.63
2022-12-29T17:55:37.213Z,9.23
2022-12-29T17:58:19.091Z,13.33
2022-12-29T18:00:52.414Z,8.95
2022-12-29T18:03:26.394Z,11.68
2022-12-29T18:05:54.332Z,11.25
2022-12-29T18:08:22.235Z,10.70
2022-12-29T18:10:53.985Z,10.87
2022-12-29T18:13:27.941Z,9.00
2022-12-29T18:15:58.487Z,12.00
2022-12-29T18:18:27.698Z,10.88
2022-12-29T18:20:59.410Z,18.40
2022-12-29T18:23:29.730Z,13.57
2022-12-29T18:26:00.258Z,8.55
2022-12-29T18:28:28.810Z,15.20
2022-12-29T18:30:59.118Z,16.02
2022-12-29T18:33:27.186Z,13.23
2022-12-29T18:36:00.337Z,11.30
2022-12-29T18:38:29.928Z,9.88
2022-12-29T18:40:58.568Z,10.88
2022-12-29T18:43:26.270Z,16.80
2022-12-29T18:45:54.288Z,17.42
2022-12-29T18:48:22.559Z,10.40
2022-12-29T18:50:52.003Z,6.25
2022-12-29T18:53:24.249Z,7.35
2022-12-29T18:55:52.922Z,6.50
2022-12-29T18:58:20.786Z,6.00
2022-12-29T19:00:48.469Z,7.43
2022-12-29T19:03:18.711Z,7.20
2022-12-29T19:05:47.492Z,8.70
2022-12-29T19:08:15.724Z,8.73
2022-12-29T19:10:44.291Z,7.35
2022-12-29T19:13:20.761Z,4.37
2022-12-29T19:15:48.435Z,6.53
2022-12-29T19:21:08.246Z,5.68
2022-12-29T19:23:35.905Z,2.97
2022-12-29T19:26:03.904Z,7.43
2022-12-29T19:28:31.453Z,3.95
2022-12-29T19:31:01.251Z,3.67
2022-12-29T19:33:29.536Z,4.70
2022-12-29T19:36:01.923Z,3.00
2022-12-29T19:38:29.977Z,4.53
2022-12-29T19:40:57.615Z,1.08
2022-12-29T19:43:25.228Z,4.75
2022-12-29T19:45:53.909Z,6.63
2022-12-29T19:48:21.683Z,2.63
2022-12-29T19:50:49.656Z,5.20
2022-12-29T19:53:17.285Z,1.40
2022-12-29T19:55:45.681Z,4.47
2022-12-29T19:58:14.187Z,2.35
2022-12-29T20:00:43.107Z,1.92
2022-12-29T20:03:11.403Z,1.90
2022-12-29T20:05:39.711Z,3.85
2022-12-29T20:08:07.446Z,3.60
2022-12-29T20:10:35.003Z,5.28
2022-12-29T20:13:04.637Z,5.63
2022-12-29T20:15:32.405Z,4.60
2022-12-29T20:18:15.506Z,7.28
2022-12-29T20:20:43.322Z,3.35
2022-12-29T20:23:11.021Z,2.60
2022-12-29T20:25:47.311Z,5.00
2022-12-29T20:28:16.887Z,5.63
2022-12-29T20:30:44.676Z,6.70
2022-12-29T20:33:12.515Z,3.85
2022-12-29T20:35:40.252Z,8.07
2022-12-29T20:38:08.160Z,9.35
2022-12-29T20:40:42.303Z,10.67
2022-12-29T20:43:15.731Z,21.83
2022-12-29T20:45:43.467Z,9.27
2022-12-29T20:48:11.235Z,5.10
2022-12-29T20:50:39.163Z,4.20
2022-12-29T20:53:06.802Z,5.20
2022-12-29T20:55:34.607Z,5.40
2022-12-29T21:00:50.022Z,6.95
2022-12-29T21:03:17.863Z,4.85
2022-12-29T21:05:45.566Z,8.30
2022-12-29T21:08:13.093Z,7.28
2022-12-29T21:10:40.684Z,4.00
2022-12-29T21:13:08.366Z,9.40
2022-12-29T21:15:35.893Z,7.43
2022-12-29T21:18:03.510Z,8.27
2022-12-29T21:20:32.145Z,9.25
2022-12-29T21:23:02.001Z,7.10
2022-12-29T21:25:37.332Z,6.78
2022-12-29T21:28:06.957Z,4.85
2022-12-29T21:30:34.968Z,6.73
2022-12-29T21:33:02.565Z,3.28
2022-12-29T21:35:30.727Z,6.90
2022-12-29T21:37:58.285Z,9.45
2022-12-29T21:40:25.901Z,8.30
2022-12-29T21:42:53.473Z,6.47
2022-12-29T21:45:27.595Z,6.70
2022-12-29T21:48:17.767Z,6.03
2022-12-29T21:51:06.596Z,3.88
2022-12-29T21:53:40.656Z,4.38
2022-12-29T21:56:10.897Z,6.70
2022-12-29T21:58:59.336Z,10.38
2022-12-29T22:01:47.568Z,5.40
2022-12-29T22:04:36.166Z,12.32
2022-12-29T22:07:24.231Z,6.78
2022-12-29T22:10:10.850Z,6.63
2022-12-29T22:12:56.941Z,8.13
2022-12-29T22:15:25.169Z,3.85
2022-12-29T22:17:54.435Z,8.45
2022-12-29T22:20:25.142Z,5.30
2022-12-29T22:22:53.250Z,3.07
2022-12-29T22:25:21.759Z,9.68
2022-12-29T22:27:54.243Z,11.55
2022-12-29T22:30:28.081Z,6.95
2022-12-29T22:32:58.052Z,7.90
2022-12-29T22:35:25.749Z,7.67
2022-12-29T22:37:53.744Z,7.90
2022-12-29T22:40:21.503Z,10.75
2022-12-29T22:42:49.048Z,7.95
2022-12-29T22:45:16.932Z,11.05
2022-12-29T22:47:44.540Z,8.43
2022-12-29T22:50:12.174Z,8.32
2022-12-29T22:52:39.894Z,9.02
2022-12-29T22:55:08.568Z,6.10
2022-12-29T22:57:36.484Z,8.15
2022-12-29T23:00:08.393Z,13.23
2022-12-29T23:02:36.202Z,12.50
2022-12-29T23:05:05.607Z,11.95
2022-12-29T23:07:36.996Z,11.18
2022-12-29T23:10:05.373Z,10.32
2022-12-29T23:12:33.213Z,11.23
2022-12-29T23:15:01.105Z,7.82
2022-12-29T23:17:28.714Z,11.93
2022-12-29T23:19:56.317Z,12.52
2022-12-29T23:22:25.143Z,12.18
2022-12-29T23:24:53.004Z,12.80
2022-12-29T23:27:20.549Z,10.32
2022-12-29T23:29:48.543Z,9.68
2022-12-29T23:32:16.416Z,14.98
2022-12-29T23:34:43.982Z,10.60
2022-12-29T23:37:11.561Z,9.67
2022-12-29T23:39:39.150Z,11.25
2022-12-29T23:42:07.003Z,9.18
2022-12-29T23:44:34.571Z,7.78
2022-12-29T23:47:02.253Z,13.80
2022-12-29T23:49:29.885Z,11.73
2022-12-29T23:51:57.392Z,7.78
2022-12-29T23:54:25.692Z,13.57
2022-12-29T23:56:53.325Z,9.70
2022-12-29T23:59:20.918Z,11.25
